Time;durP1;ratioP1;P1;durP2;ratioP2;P2;SDS_P1;SDS_P2;PMS_P1;PMS_P2;Temp;Humidity;BMP_temperature;BMP_pressure;BME280_temperature;BME280_humidity;BME280_pressure;Samples;Min_cycle;Max_cycle;Signal;HPM_P1;HPM_P2
2023/08/04 00:00:57;;;;;;;6.28;2.10;;;17.50;99.90;;;;;;4157864;28;20033;-62
2023/08/04 00:02:57;;;;;;;7.10;2.20;;;17.50;99.90;;;;;;4149346;28;20041;-62
2023/08/04 00:04:58;;;;;;;3.60;1.95;;;17.50;99.90;;;;;;4159452;28;20040;-62
2023/08/04 00:06:58;;;;;;;3.47;1.90;;;17.50;99.90;;;;;;4151096;28;20060;-62
2023/08/04 00:08:59;;;;;;;4.32;1.98;;;17.50;99.90;;;;;;4157459;28;20445;-62
2023/08/04 00:11:00;;;;;;;5.28;1.80;;;17.40;99.90;;;;;;4157032;28;20037;-64
2023/08/04 00:13:00;;;;;;;5.20;1.58;;;17.40;99.90;;;;;;4156441;28;20059;-62
2023/08/04 00:15:01;;;;;;;4.22;1.83;;;17.50;99.90;;;;;;4152404;28;20037;-63
2023/08/04 00:17:02;;;;;;;2.88;1.52;;;17.40;99.90;;;;;;4150857;28;20568;-62
2023/08/04 00:19:03;;;;;;;5.43;1.88;;;17.40;99.90;;;;;;4152782;28;20056;-63
2023/08/04 00:21:03;;;;;;;4.05;1.90;;;17.40;99.90;;;;;;4157709;28;20121;-63
2023/08/04 00:23:04;;;;;;;6.95;2.28;;;17.40;99.90;;;;;;4156152;28;20486;-62
2023/08/04 00:25:05;;;;;;;4.53;2.10;;;17.40;99.90;;;;;;4145286;28;20081;-62
2023/08/04 00:27:06;;;;;;;5.00;1.90;;;17.40;99.90;;;;;;4147768;28;20057;-63
2023/08/04 00:29:07;;;;;;;6.72;1.95;;;17.40;99.90;;;;;;4149271;28;20034;-63
2023/08/04 00:31:07;;;;;;;6.65;2.15;;;17.40;99.90;;;;;;4151788;28;20033;-62
2023/08/04 00:33:09;;;;;;;4.85;1.98;;;17.40;99.90;;;;;;4153750;28;20033;-63
2023/08/04 00:35:10;;;;;;;6.25;2.15;;;17.30;99.90;;;;;;4155368;28;20025;-66
2023/08/04 00:37:10;;;;;;;4.55;1.85;;;17.30;99.90;;;;;;4151029;28;20051;-62
2023/08/04 00:39:11;;;;;;;5.25;2.08;;;17.40;99.90;;;;;;4158082;28;20032;-62
2023/08/04 00:41:12;;;;;;;3.38;1.70;;;17.30;99.90;;;;;;4158134;28;20059;-62
2023/08/04 00:43:13;;;;;;;4.75;1.83;;;17.30;99.90;;;;;;4154982;28;20120;-62
2023/08/04 00:45:13;;;;;;;4.18;2.08;;;17.30;99.90;;;;;;4154172;28;20064;-62
2023/08/04 00:47:14;;;;;;;5.45;1.75;;;17.30;99.90;;;;;;4151890;28;20045;-62
2023/08/04 00:49:18;;;;;;;4.75;2.03;;;17.30;99.90;;;;;;4150962;28;20505;-62
2023/08/04 00:51:18;;;;;;;4.55;1.80;;;17.30;99.90;;;;;;4125207;28;20034;-62
2023/08/04 00:53:19;;;;;;;3.58;1.45;;;17.40;99.90;;;;;;4146047;28;20038;-62
2023/08/04 00:55:20;;;;;;;4.78;1.90;;;17.40;99.90;;;;;;4144307;28;20549;-62
2023/08/04 00:57:21;;;;;;;2.83;1.60;;;17.30;99.90;;;;;;4152102;28;20446;-62
2023/08/04 00:59:22;;;;;;;3.90;1.98;;;17.30;99.90;;;;;;4153225;28;20042;-62
2023/08/04 01:01:22;;;;;;;6.25;2.00;;;17.40;99.90;;;;;;4141244;28;20391;-63
2023/08/04 01:03:25;;;;;;;5.95;2.08;;;17.40;99.90;;;;;;4152801;28;20267;-63
2023/08/04 01:05:45;;;;;;;6.57;2.10;;;17.30;99.90;;;;;;4159009;28;20072;-62
2023/08/04 01:08:07;;;;;;;3.95;1.70;;;17.30;99.90;;;;;;4158204;28;20490;-62
2023/08/04 01:10:20;;;;;;;2.33;1.75;;;17.30;99.90;;;;;;4160274;28;20037;-63
2023/08/04 01:12:21;;;;;;;;;;;17.30;99.90;;;;;;4149558;28;20048;-62
2023/08/04 01:14:23;;;;;;;4.20;1.90;;;17.30;99.90;;;;;;4151846;28;20008;-62
2023/08/04 01:16:24;;;;;;;;;;;17.30;99.90;;;;;;4153395;28;20026;-63
2023/08/04 01:18:24;;;;;;;4.40;2.00;;;17.30;99.90;;;;;;4171999;28;19909;-63
2023/08/04 01:20:26;;;;;;;8.13;2.95;;;17.30;99.90;;;;;;4174706;28;20425;-63
2023/08/04 01:22:27;;;;;;;3.72;2.30;;;17.20;99.90;;;;;;4177742;28;20033;-62
2023/08/04 01:24:28;;;;;;;9.13;2.60;;;17.20;99.90;;;;;;4164936;28;20037;-62
2023/08/04 01:26:28;;;;;;;5.18;2.47;;;17.20;99.90;;;;;;4163819;28;20462;-62
2023/08/04 01:28:32;;;;;;;5.75;2.40;;;17.20;99.90;;;;;;4172902;28;20068;-62
2023/08/04 01:30:33;;;;;;;6.43;2.35;;;17.20;99.90;;;;;;4170740;28;20045;-63
2023/08/04 01:32:33;;;;;;;4.63;1.90;;;17.20;99.90;;;;;;4153245;28;20589;-62
2023/08/04 01:34:34;;;;;;;4.45;2.58;;;17.20;99.90;;;;;;4174337;28;20067;-63
2023/08/04 01:36:35;;;;;;;5.97;2.20;;;17.20;99.90;;;;;;4166509;28;20025;-63
2023/08/04 01:38:36;;;;;;;4.75;2.20;;;17.20;99.90;;;;;;4169410;28;20056;-62
2023/08/04 01:40:36;;;;;;;5.07;2.00;;;17.20;99.90;;;;;;4163928;28;20394;-63
2023/08/04 01:42:37;;;;;;;4.97;1.95;;;17.20;99.90;;;;;;4160576;28;20037;-62
2023/08/04 01:44:38;;;;;;;7.55;2.35;;;17.20;99.90;;;;;;4176963;28;20542;-62
2023/08/04 01:46:38;;;;;;;4.63;2.15;;;17.30;99.90;;;;;;4170490;28;20037;-62
2023/08/04 01:48:39;;;;;;;3.35;1.88;;;17.30;99.90;;;;;;4152407;28;20061;-63
2023/08/04 01:50:39;;;;;;;4.35;1.80;;;17.30;99.90;;;;;;4172471;28;20044;-63
2023/08/04 01:52:40;;;;;;;6.28;2.13;;;17.30;99.90;;;;;;4162589;28;20056;-71
2023/08/04 01:54:41;;;;;;;4.50;1.73;;;17.30;99.90;;;;;;4156460;28;20108;-71
2023/08/04 01:56:41;;;;;;;4.90;2.30;;;17.30;99.90;;;;;;4150139;28;20387;-71
2023/08/04 01:58:42;;;;;;;5.22;2.10;;;17.30;99.90;;;;;;4170525;28;20483;-72
2023/08/04 02:00:42;;;;;;;3.60;2.10;;;17.30;99.90;;;;;;4169955;28;20051;-71
2023/08/04 02:02:43;;;;;;;4.97;2.60;;;17.40;99.90;;;;;;4172155;28;20040;-71
2023/08/04 02:04:44;;;;;;;4.03;2.28;;;17.40;99.90;;;;;;4164349;28;20064;-71
2023/08/04 02:06:44;;;;;;;4.47;2.00;;;17.40;99.90;;;;;;4166444;28;20037;-70
2023/08/04 02:08:46;;;;;;;5.18;2.20;;;17.40;99.90;;;;;;4168612;28;20060;-70
2023/08/04 02:10:50;;;;;;;3.88;2.17;;;17.40;99.90;;;;;;4162267;28;20037;-70
2023/08/04 02:12:51;;;;;;;5.95;2.13;;;17.40;99.90;;;;;;4162332;28;20111;-71
2023/08/04 02:14:51;;;;;;;3.78;2.15;;;17.50;99.90;;;;;;4172183;28;20033;-71
2023/08/04 02:16:52;;;;;;;4.07;1.88;;;17.40;99.90;;;;;;4173569;28;20063;-71
2023/08/04 02:19:00;;;;;;;4.07;2.40;;;17.40;99.90;;;;;;4168924;28;20038;-70
2023/08/04 02:21:01;;;;;;;5.03;2.17;;;17.40;99.90;;;;;;4167894;28;20040;-70
2023/08/04 02:23:02;;;;;;;11.65;3.13;;;17.40;99.90;;;;;;4163408;28;20052;-71
2023/08/04 02:25:03;;;;;;;4.65;2.40;;;17.40;99.90;;;;;;4145434;28;20058;-71
2023/08/04 02:27:05;;;;;;;6.65;2.15;;;17.40;99.90;;;;;;4163209;28;20482;-71
2023/08/04 02:29:05;;;;;;;4.88;1.92;;;17.40;99.90;;;;;;4169999;28;20167;-70
2023/08/04 02:31:06;;;;;;;5.80;2.50;;;17.40;99.90;;;;;;4160765;28;20116;-71
2023/08/04 02:33:07;;;;;;;4.82;2.60;;;17.40;99.90;;;;;;4175025;28;20029;-71
2023/08/04 02:35:08;;;;;;;7.55;2.88;;;17.40;99.90;;;;;;4164806;28;20045;-71
2023/08/04 02:37:08;;;;;;;7.65;2.78;;;17.40;99.90;;;;;;4163446;28;20037;-71
2023/08/04 02:39:09;;;;;;;6.30;2.55;;;17.40;99.90;;;;;;4174070;28;20120;-71
2023/08/04 02:41:10;;;;;;;5.30;2.40;;;17.40;99.90;;;;;;4147352;28;20563;-70
2023/08/04 02:43:10;;;;;;;4.43;2.42;;;17.40;99.90;;;;;;4162719;28;20033;-71
2023/08/04 02:45:11;;;;;;;4.40;2.47;;;17.40;99.90;;;;;;4162821;28;20741;-71
2023/08/04 02:47:12;;;;;;;4.97;2.65;;;17.40;99.90;;;;;;4164112;28;20061;-71
2023/08/04 02:49:12;;;;;;;4.10;2.20;;;17.40;99.90;;;;;;4157210;28;20048;-71
2023/08/04 02:51:13;;;;;;;5.43;2.75;;;17.30;99.90;;;;;;4173498;28;20033;-71
2023/08/04 02:53:13;;;;;;;6.05;2.30;;;17.40;99.90;;;;;;4154738;28;20049;-71
2023/08/04 02:55:14;;;;;;;4.60;2.33;;;17.40;99.90;;;;;;4172569;28;20041;-71
2023/08/04 02:57:15;;;;;;;6.45;2.47;;;17.40;99.90;;;;;;4163283;28;20056;-71
2023/08/04 02:59:15;;;;;;;3.90;2.30;;;17.30;99.90;;;;;;4157476;28;20398;-71
2023/08/04 03:01:16;;;;;;;6.63;2.60;;;17.30;99.90;;;;;;4173281;28;20133;-65
2023/08/04 03:03:20;;;;;;;5.32;2.60;;;17.30;99.90;;;;;;4172089;28;20041;-64
2023/08/04 03:05:21;;;;;;;5.35;2.42;;;17.30;99.90;;;;;;4173338;28;20033;-64
2023/08/04 03:07:21;;;;;;;3.55;2.42;;;17.30;99.90;;;;;;4169604;28;20850;-64
2023/08/04 03:09:22;;;;;;;4.10;2.30;;;17.30;99.90;;;;;;4157296;28;20061;-64
2023/08/04 03:11:23;;;;;;;6.38;2.55;;;17.30;99.90;;;;;;4156728;28;20046;-65
2023/08/04 03:13:24;;;;;;;5.22;2.13;;;17.30;99.90;;;;;;4166365;28;20109;-64
2023/08/04 03:15:25;;;;;;;4.78;2.10;;;17.30;99.90;;;;;;4161689;28;20048;-66
2023/08/04 03:17:25;;;;;;;4.55;2.17;;;17.30;99.90;;;;;;4170641;28;20037;-65
2023/08/04 03:19:26;;;;;;;3.38;2.33;;;17.30;99.90;;;;;;4174990;28;20390;-65
2023/08/04 03:21:27;;;;;;;4.32;1.90;;;17.30;99.90;;;;;;4174892;28;20036;-65
2023/08/04 03:23:27;;;;;;;5.18;2.47;;;17.30;99.90;;;;;;4152378;28;20049;-65
2023/08/04 03:25:28;;;;;;;2.83;1.75;;;17.30;99.90;;;;;;4171789;28;20115;-65
2023/08/04 03:27:29;;;;;;;3.25;1.88;;;17.30;99.90;;;;;;4167649;28;20038;-65
2023/08/04 03:29:29;;;;;;;4.22;2.22;;;17.40;99.90;;;;;;4172754;28;20037;-65
2023/08/04 03:31:30;;;;;;;5.65;2.38;;;17.30;99.90;;;;;;4173710;28;20104;-64
2023/08/04 03:33:31;;;;;;;4.72;2.45;;;17.30;99.90;;;;;;4174171;28;20029;-65
2023/08/04 03:35:32;;;;;;;5.90;2.40;;;17.30;99.90;;;;;;4175623;28;20071;-65
2023/08/04 03:37:32;;;;;;;6.72;2.75;;;17.30;99.90;;;;;;4164090;28;20036;-65
2023/08/04 03:39:33;;;;;;;5.85;2.20;;;17.30;99.90;;;;;;4168524;28;20029;-65
2023/08/04 03:41:33;;;;;;;6.50;2.78;;;17.30;99.90;;;;;;4168935;28;20033;-64
2023/08/04 03:43:35;;;;;;;5.45;2.75;;;17.30;99.90;;;;;;4171462;28;20513;-64
2023/08/04 03:45:35;;;;;;;8.43;2.90;;;17.30;99.90;;;;;;4174358;28;20044;-64
2023/08/04 03:47:36;;;;;;;6.55;3.15;;;17.20;99.90;;;;;;4163932;28;20389;-64
2023/08/04 03:49:36;;;;;;;5.43;2.97;;;17.20;99.90;;;;;;4172677;28;20052;-64
2023/08/04 03:51:37;;;;;;;10.02;2.85;;;17.20;99.90;;;;;;4172657;28;20048;-64
2023/08/04 03:53:38;;;;;;;5.93;2.63;;;17.10;99.90;;;;;;4167659;28;20056;-64
2023/08/04 03:55:38;;;;;;;5.47;2.65;;;17.20;99.90;;;;;;4170551;28;20477;-64
2023/08/04 03:57:39;;;;;;;6.00;2.40;;;17.10;99.90;;;;;;4157070;28;20058;-64
2023/08/04 03:59:40;;;;;;;4.47;2.40;;;17.10;99.90;;;;;;4145423;28;20042;-64
2023/08/04 04:01:41;;;;;;;7.40;2.50;;;17.10;99.90;;;;;;4164638;28;20108;-64
2023/08/04 04:03:41;;;;;;;6.57;2.67;;;17.10;99.90;;;;;;4171855;28;20431;-67
2023/08/04 04:05:42;;;;;;;5.30;2.65;;;17.10;99.90;;;;;;4159455;28;20445;-65
2023/08/04 04:07:42;;;;;;;4.05;2.28;;;17.10;99.90;;;;;;4171024;28;20041;-65
2023/08/04 04:09:43;;;;;;;9.27;2.83;;;17.10;99.90;;;;;;4164794;28;20048;-64
2023/08/04 04:11:43;;;;;;;4.20;2.13;;;17.20;99.90;;;;;;4148891;28;20110;-62
2023/08/04 04:13:44;;;;;;;5.20;2.63;;;17.20;99.90;;;;;;4171912;28;20025;-63
2023/08/04 04:15:45;;;;;;;4.60;2.85;;;17.10;99.90;;;;;;4157288;28;20033;-62
2023/08/04 04:17:45;;;;;;;5.65;2.20;;;17.10;99.90;;;;;;4162328;28;20056;-63
2023/08/04 04:19:46;;;;;;;4.72;2.50;;;17.20;99.90;;;;;;4167275;28;20033;-62
2023/08/04 04:21:46;;;;;;;6.90;2.72;;;17.20;99.90;;;;;;4173163;28;20029;-62
2023/08/04 04:23:47;;;;;;;6.80;2.65;;;17.10;99.90;;;;;;4171568;28;20087;-63
2023/08/04 04:25:50;;;;;;;9.38;2.67;;;17.10;99.90;;;;;;4173405;28;20037;-63
2023/08/04 04:27:50;;;;;;;7.60;3.38;;;17.20;99.90;;;;;;4169917;28;20135;-62
2023/08/04 04:29:51;;;;;;;6.65;2.67;;;17.10;99.90;;;;;;4171458;28;20041;-62
2023/08/04 04:31:51;;;;;;;6.20;2.67;;;17.20;99.90;;;;;;4169153;28;20040;-62
2023/08/04 04:33:52;;;;;;;5.05;2.50;;;17.20;99.90;;;;;;4170586;28;20416;-62
2023/08/04 04:35:52;;;;;;;4.95;2.70;;;17.20;99.90;;;;;;4171804;28;20037;-62
2023/08/04 04:37:53;;;;;;;6.57;2.65;;;17.20;99.90;;;;;;4166585;28;20057;-62
2023/08/04 04:39:54;;;;;;;4.97;2.40;;;17.20;99.90;;;;;;4161054;28;20036;-62
2023/08/04 04:41:54;;;;;;;6.35;2.80;;;17.20;99.90;;;;;;4166333;28;20045;-62
2023/08/04 04:43:55;;;;;;;7.28;3.20;;;17.10;99.90;;;;;;4168569;28;20404;-62
2023/08/04 04:45:56;;;;;;;6.28;2.50;;;17.10;99.90;;;;;;4164318;28;20596;-65
2023/08/04 04:47:57;;;;;;;6.28;2.65;;;17.20;99.90;;;;;;4172585;28;20024;-62
2023/08/04 04:49:58;;;;;;;4.75;2.63;;;17.20;99.90;;;;;;4170113;28;20067;-63
2023/08/04 04:51:58;;;;;;;5.22;2.50;;;17.20;99.90;;;;;;4176882;28;20036;-62
2023/08/04 04:53:59;;;;;;;5.97;2.78;;;17.10;99.90;;;;;;4178816;28;20448;-62
2023/08/04 04:55:59;;;;;;;4.25;2.60;;;17.20;99.90;;;;;;4165289;28;20040;-63
2023/08/04 04:58:00;;;;;;;4.47;2.53;;;17.20;99.90;;;;;;4173668;28;20036;-62
2023/08/04 05:00:01;;;;;;;7.03;3.05;;;17.20;99.90;;;;;;4176686;28;20366;-62
2023/08/04 05:02:01;;;;;;;6.03;2.72;;;17.20;99.90;;;;;;4166501;28;20419;-62
2023/08/04 05:04:02;;;;;;;6.13;3.13;;;17.10;99.90;;;;;;4153658;28;20075;-62
2023/08/04 05:06:03;;;;;;;5.20;3.00;;;17.20;99.90;;;;;;4155561;28;20041;-62
2023/08/04 05:08:04;;;;;;;3.80;2.45;;;17.20;99.90;;;;;;4167218;28;20034;-62
2023/08/04 05:10:05;;;;;;;6.07;2.50;;;17.20;99.90;;;;;;4145497;28;20116;-64
2023/08/04 05:12:06;;;;;;;4.90;2.55;;;17.10;99.90;;;;;;4155004;28;20083;-62
2023/08/04 05:14:07;;;;;;;3.58;2.28;;;17.20;99.90;;;;;;4156626;28;20041;-62
2023/08/04 05:16:08;;;;;;;8.27;2.85;;;17.20;99.90;;;;;;4165322;28;20102;-62
2023/08/04 05:18:08;;;;;;;5.15;2.78;;;17.20;99.90;;;;;;4158211;28;20034;-62
2023/08/04 05:20:10;;;;;;;4.90;3.08;;;17.20;99.90;;;;;;4159133;28;20366;-63
2023/08/04 05:22:12;;;;;;;7.22;3.53;;;17.20;99.90;;;;;;4164514;28;20178;-66
2023/08/04 05:24:12;;;;;;;6.22;2.90;;;17.20;99.90;;;;;;4156828;28;20034;-66
2023/08/04 05:26:13;;;;;;;6.10;3.00;;;17.30;99.90;;;;;;4170568;28;20045;-66
2023/08/04 05:28:21;;;;;;;6.85;3.17;;;17.20;99.90;;;;;;4159598;28;20045;-66
2023/08/04 05:30:21;;;;;;;6.47;3.10;;;17.20;99.90;;;;;;4157599;28;20405;-66
2023/08/04 05:32:22;;;;;;;7.25;3.08;;;17.20;99.90;;;;;;4163102;28;20108;-66
2023/08/04 05:34:23;;;;;;;6.82;3.22;;;17.30;99.90;;;;;;4152069;28;20517;-66
2023/08/04 05:36:23;;;;;;;6.93;3.40;;;17.30;99.90;;;;;;4157700;28;20038;-66
2023/08/04 05:38:24;;;;;;;7.50;3.30;;;17.20;99.90;;;;;;4154159;28;20029;-66
2023/08/04 05:40:25;;;;;;;7.43;3.75;;;17.30;99.90;;;;;;4152510;28;20629;-66
2023/08/04 05:42:25;;;;;;;6.43;3.00;;;17.30;99.90;;;;;;4162429;28;20034;-66
2023/08/04 05:44:26;;;;;;;7.63;3.47;;;17.30;99.90;;;;;;4166400;28;20040;-67
2023/08/04 05:46:27;;;;;;;6.53;2.97;;;17.30;99.90;;;;;;4178351;28;20037;-68
2023/08/04 05:48:28;;;;;;;5.80;2.85;;;17.30;99.90;;;;;;4153257;28;20052;-65
2023/08/04 05:50:29;;;;;;;5.07;3.13;;;17.30;99.90;;;;;;4160262;28;20131;-64
2023/08/04 05:52:29;;;;;;;4.65;2.65;;;17.30;99.90;;;;;;4165835;28;20037;-65
2023/08/04 05:54:30;;;;;;;4.65;2.92;;;17.30;99.90;;;;;;4149677;28;20062;-65
2023/08/04 05:56:30;;;;;;;5.38;3.35;;;17.40;99.90;;;;;;4169264;28;20029;-65
2023/08/04 05:58:31;;;;;;;6.30;3.33;;;17.40;99.90;;;;;;4167434;28;20041;-65
2023/08/04 06:00:32;;;;;;;8.65;3.63;;;17.40;99.90;;;;;;4165736;28;20176;-64
2023/08/04 06:02:33;;;;;;;7.65;4.22;;;17.40;99.90;;;;;;4149883;28;20041;-65
2023/08/04 06:04:34;;;;;;;5.57;2.95;;;17.40;99.90;;;;;;4157654;28;20025;-65
2023/08/04 06:06:34;;;;;;;8.90;3.67;;;17.40;99.90;;;;;;4160301;28;20104;-65
2023/08/04 06:08:35;;;;;;;9.68;4.03;;;17.40;99.90;;;;;;4139891;28;20034;-65
2023/08/04 06:10:36;;;;;;;8.18;3.72;;;17.30;99.90;;;;;;4154550;28;20493;-64
2023/08/04 06:12:36;;;;;;;8.65;3.45;;;17.40;99.90;;;;;;4142015;28;20179;-64
2023/08/04 06:14:37;;;;;;;5.72;3.25;;;17.40;99.90;;;;;;4155456;28;20038;-64
2023/08/04 06:16:37;;;;;;;4.40;2.80;;;17.40;99.90;;;;;;4147324;28;20050;-64
2023/08/04 06:18:38;;;;;;;4.60;2.80;;;17.40;99.90;;;;;;4146799;28;20796;-64
2023/08/04 06:20:39;;;;;;;11.27;4.35;;;17.40;99.90;;;;;;4149921;28;20442;-64
2023/08/04 06:22:40;;;;;;;9.38;4.18;;;17.50;99.90;;;;;;4152357;28;20030;-65
2023/08/04 06:24:41;;;;;;;8.02;4.07;;;17.50;99.90;;;;;;4153261;28;20054;-65
2023/08/04 06:26:41;;;;;;;8.23;3.70;;;17.50;99.90;;;;;;4147027;28;20026;-64
2023/08/04 06:28:42;;;;;;;6.35;3.50;;;17.50;99.90;;;;;;4150145;28;20124;-64
2023/08/04 06:30:42;;;;;;;7.65;3.75;;;17.50;99.90;;;;;;4149205;28;20088;-69
2023/08/04 06:32:43;;;;;;;7.93;3.13;;;17.50;99.90;;;;;;4151391;28;20117;-62
2023/08/04 06:34:44;;;;;;;7.68;3.95;;;17.60;99.90;;;;;;4144900;28;20022;-62
2023/08/04 06:36:48;;;;;;;7.45;3.58;;;17.60;99.90;;;;;;4146861;28;20188;-63
2023/08/04 06:38:49;;;;;;;7.50;3.90;;;17.70;99.90;;;;;;4148240;28;20389;-63
2023/08/04 06:40:50;;;;;;;7.68;3.58;;;17.70;99.90;;;;;;4145836;28;20101;-63
2023/08/04 06:42:50;;;;;;;9.23;4.15;;;17.80;99.90;;;;;;4148399;28;20473;-63
2023/08/04 06:44:51;;;;;;;8.57;4.10;;;17.90;99.90;;;;;;4151243;28;20045;-63
2023/08/04 06:46:52;;;;;;;6.60;3.92;;;18.00;99.90;;;;;;4146085;28;20025;-62
2023/08/04 06:48:53;;;;;;;7.35;3.58;;;18.10;99.90;;;;;;4156596;28;20041;-63
2023/08/04 06:50:53;;;;;;;9.02;4.22;;;18.20;99.90;;;;;;4146878;28;20165;-62
2023/08/04 06:52:54;;;;;;;9.63;3.92;;;18.30;99.90;;;;;;4150826;28;20041;-62
2023/08/04 06:54:54;;;;;;;8.02;3.40;;;18.30;99.90;;;;;;4145808;28;20026;-62
2023/08/04 06:56:55;;;;;;;7.78;3.25;;;18.40;99.90;;;;;;4146365;28;20030;-63
2023/08/04 06:58:56;;;;;;;8.20;3.58;;;18.40;99.90;;;;;;4146461;28;20030;-63
2023/08/04 07:00:57;;;;;;;10.38;4.85;;;18.50;99.90;;;;;;4147241;28;20058;-62
2023/08/04 07:02:57;;;;;;;7.50;3.47;;;18.60;99.90;;;;;;4152348;28;20034;-62
2023/08/04 07:04:58;;;;;;;9.10;3.88;;;18.50;99.90;;;;;;4150302;28;20525;-63
2023/08/04 07:07:00;;;;;;;8.43;3.65;;;18.60;99.90;;;;;;4153077;28;20116;-63
2023/08/04 07:09:00;;;;;;;5.78;3.20;;;18.60;99.90;;;;;;4151570;28;20498;-63
2023/08/04 07:11:01;;;;;;;10.18;3.25;;;18.60;99.90;;;;;;4144066;28;20164;-63
2023/08/04 07:13:02;;;;;;;7.65;3.92;;;18.70;99.90;;;;;;4147613;28;20034;-62
2023/08/04 07:15:03;;;;;;;8.02;3.58;;;18.70;99.90;;;;;;4151724;28;20506;-64
2023/08/04 07:17:04;;;;;;;7.88;3.20;;;18.70;99.90;;;;;;4148684;28;20460;-62
2023/08/04 07:19:05;;;;;;;7.82;3.33;;;18.70;99.90;;;;;;4152865;28;20116;-62
2023/08/04 07:21:07;;;;;;;8.35;3.28;;;18.80;99.90;;;;;;4146218;28;20101;-62
2023/08/04 07:23:08;;;;;;;7.78;3.15;;;18.90;99.90;;;;;;4149996;28;20176;-62
2023/08/04 07:25:09;;;;;;;6.65;2.85;;;18.90;99.90;;;;;;4166560;28;20489;-63
2023/08/04 07:27:09;;;;;;;8.35;3.30;;;19.00;99.90;;;;;;4160663;28;20116;-63
2023/08/04 07:29:10;;;;;;;6.53;3.00;;;19.10;99.90;;;;;;4168207;28;20092;-62
2023/08/04 07:31:11;;;;;;;8.18;3.03;;;19.10;99.90;;;;;;4167335;28;20411;-62
2023/08/04 07:33:11;;;;;;;9.30;3.72;;;19.20;99.90;;;;;;4162321;28;20045;-63
2023/08/04 07:35:12;;;;;;;6.75;3.22;;;19.20;99.90;;;;;;4146314;28;20033;-63
2023/08/04 07:37:12;;;;;;;7.03;3.30;;;19.20;99.90;;;;;;4161127;28;20041;-63
2023/08/04 07:39:13;;;;;;;7.82;2.97;;;19.30;99.90;;;;;;4162031;28;20549;-62
2023/08/04 07:41:21;;;;;;;7.20;3.33;;;19.30;99.90;;;;;;4133132;28;20073;-69
2023/08/04 07:43:22;;;;;;;9.93;4.10;;;19.40;99.90;;;;;;4153507;28;20034;-69
2023/08/04 07:45:22;;;;;;;7.75;3.67;;;19.40;99.90;;;;;;4159963;28;20075;-69
2023/08/04 07:47:23;;;;;;;11.63;4.18;;;19.40;99.90;;;;;;4157042;28;20026;-68
2023/08/04 07:49:25;;;;;;;8.38;3.83;;;19.40;99.90;;;;;;4159300;28;20128;-68
2023/08/04 07:51:25;;;;;;;11.48;3.78;;;19.40;99.90;;;;;;4165127;28;20398;-69
2023/08/04 07:53:26;;;;;;;7.45;3.90;;;19.50;99.90;;;;;;4158653;28;20058;-69
2023/08/04 07:55:26;;;;;;;5.00;3.25;;;19.50;99.90;;;;;;4155205;28;20033;-68
2023/08/04 07:57:27;;;;;;;10.15;4.28;;;19.50;99.90;;;;;;4152963;28;20081;-68
2023/08/04 07:59:28;;;;;;;11.63;4.95;;;19.60;99.90;;;;;;4154809;28;20071;-69
2023/08/04 08:01:28;;;;;;;6.78;3.50;;;19.50;99.90;;;;;;4161143;28;20035;-69
2023/08/04 08:03:30;;;;;;;8.55;4.00;;;19.50;99.90;;;;;;4166702;28;20064;-69
2023/08/04 08:05:30;;;;;;;8.13;4.03;;;19.60;99.90;;;;;;4157754;28;20163;-68
2023/08/04 08:07:31;;;;;;;14.43;5.28;;;19.50;99.90;;;;;;4164477;28;20036;-69
2023/08/04 08:09:31;;;;;;;10.52;4.38;;;19.50;99.90;;;;;;4158904;28;20033;-69
2023/08/04 08:11:32;;;;;;;10.90;4.97;;;19.50;99.90;;;;;;4160423;28;20084;-69
2023/08/04 08:13:33;;;;;;;8.80;4.30;;;19.50;99.90;;;;;;4157171;28;20804;-68
2023/08/04 08:15:33;;;;;;;5.28;3.63;;;19.50;99.90;;;;;;4146891;28;20041;-69
2023/08/04 08:17:34;;;;;;;9.00;4.50;;;19.40;99.90;;;;;;4154927;28;20570;-69
2023/08/04 08:19:34;;;;;;;5.30;3.55;;;19.50;99.90;;;;;;4160573;28;20091;-69
2023/08/04 08:21:35;;;;;;;6.05;4.07;;;19.40;99.90;;;;;;4170147;28;20029;-68
2023/08/04 08:23:36;;;;;;;7.78;3.90;;;19.50;99.90;;;;;;4166548;28;20435;-69
2023/08/04 08:25:37;;;;;;;6.85;3.63;;;19.40;99.90;;;;;;4155992;28;20083;-68
2023/08/04 08:27:38;;;;;;;7.65;3.90;;;19.50;99.90;;;;;;4157377;28;20034;-69
2023/08/04 08:29:41;;;;;;;7.00;3.30;;;19.60;99.90;;;;;;4153433;28;20033;-69
2023/08/04 08:31:41;;;;;;;;;;;19.60;99.90;;;;;;4148155;28;20037;-69
2023/08/04 08:33:42;;;;;;;8.27;3.45;;;19.60;99.90;;;;;;4148282;28;20255;-69
2023/08/04 08:35:42;;;;;;;6.18;3.50;;;19.60;99.90;;;;;;4149057;28;20034;-68
2023/08/04 08:37:43;;;;;;;4.07;2.90;;;19.60;99.90;;;;;;4150937;28;20121;-68
2023/08/04 08:39:44;;;;;;;5.45;3.20;;;19.60;99.90;;;;;;4151481;28;20444;-69
2023/08/04 08:41:44;;;;;;;8.70;3.72;;;19.60;99.90;;;;;;4153672;28;20113;-69
2023/08/04 08:43:46;;;;;;;6.20;3.15;;;19.60;99.90;;;;;;4158038;28;20037;-69
2023/08/04 08:45:49;;;;;;;5.43;3.13;;;19.60;99.90;;;;;;4158434;28;20080;-69
2023/08/04 08:47:50;;;;;;;5.60;2.85;;;19.60;99.90;;;;;;4159089;28;20107;-69
2023/08/04 08:49:59;;;;;;;9.05;3.42;;;19.70;99.90;;;;;;4148632;28;20544;-69
2023/08/04 08:52:00;;;;;;;4.50;2.60;;;19.70;99.90;;;;;;4164188;28;20029;-67
2023/08/04 08:54:03;;;;;;;9.00;4.22;;;19.70;99.90;;;;;;4153778;28;20124;-69
2023/08/04 08:56:04;;;;;;;10.25;3.70;;;19.70;99.90;;;;;;4154669;28;20168;-67
2023/08/04 08:58:05;;;;;;;6.35;3.90;;;19.70;99.90;;;;;;4157632;28;20099;-67
2023/08/04 09:00:06;;;;;;;7.07;3.17;;;19.70;99.90;;;;;;4153400;28;20046;-68
2023/08/04 09:02:08;;;;;;;7.07;3.70;;;19.70;99.90;;;;;;4145294;28;20482;-67
2023/08/04 09:04:08;;;;;;;8.60;3.80;;;19.70;99.90;;;;;;4158748;28;20091;-67
2023/08/04 09:06:09;;;;;;;11.20;4.10;;;19.70;99.90;;;;;;4147889;28;20125;-68
2023/08/04 09:08:10;;;;;;;8.70;3.80;;;19.70;99.90;;;;;;4148589;28;20504;-67
2023/08/04 09:10:10;;;;;;;6.70;3.88;;;19.80;99.90;;;;;;4159555;28;20041;-68
2023/08/04 09:12:11;;;;;;;11.25;4.13;;;19.80;99.90;;;;;;4165176;28;20029;-67
2023/08/04 09:14:12;;;;;;;7.95;3.70;;;19.90;99.90;;;;;;4161361;28;22310;-67
2023/08/04 09:16:13;;;;;;;5.43;2.97;;;19.90;99.90;;;;;;4166789;28;20098;-67
2023/08/04 09:18:38;;;;;;;4.95;2.97;;;19.90;99.90;;;;;;4173022;28;20059;-67
2023/08/04 09:20:39;;;;;;;4.00;2.72;;;20.00;99.90;;;;;;4163120;28;20064;-67
2023/08/04 09:22:42;;;;;;;5.38;2.60;;;20.00;99.90;;;;;;4152487;28;20033;-67
2023/08/04 09:24:55;;;;;;;4.05;3.10;;;20.10;99.90;;;;;;4171554;28;20064;-67
2023/08/04 09:26:57;;;;;;;6.57;3.25;;;20.20;99.90;;;;;;4168523;28;20033;-67
2023/08/04 09:29:05;;;;;;;5.70;3.17;;;20.30;99.90;;;;;;4170378;28;20033;-67
2023/08/04 09:31:11;;;;;;;6.20;3.35;;;20.30;99.90;;;;;;4166046;28;20092;-67
2023/08/04 09:33:23;;;;;;;4.28;2.10;;;20.40;99.90;;;;;;4165483;28;20554;-67
2023/08/04 09:35:23;;;;;;;5.80;2.58;;;20.40;99.90;;;;;;4174818;28;20033;-68
2023/08/04 09:37:24;;;;;;;6.05;2.88;;;20.50;99.90;;;;;;4165018;28;20032;-68
2023/08/04 09:39:24;;;;;;;4.93;3.00;;;20.50;99.90;;;;;;4162292;28;20533;-68
2023/08/04 09:41:25;;;;;;;5.97;2.83;;;20.50;99.90;;;;;;4146917;28;20038;-68
2023/08/04 09:43:26;;;;;;;3.42;2.10;;;20.50;99.90;;;;;;4166659;28;20033;-67
2023/08/04 09:45:32;;;;;;;6.00;2.05;;;20.60;99.90;;;;;;4161712;28;20140;-68
2023/08/04 09:47:33;;;;;;;5.25;2.35;;;20.60;99.90;;;;;;4152093;28;20131;-68
2023/08/04 09:49:35;;;;;;;2.97;2.53;;;20.60;99.90;;;;;;4161609;28;20041;-67
2023/08/04 09:51:41;;;;;;;7.20;3.15;;;20.60;99.90;;;;;;4152958;28;20064;-67
2023/08/04 09:53:43;;;;;;;6.40;2.30;;;20.70;99.90;;;;;;4147952;28;20494;-67
2023/08/04 09:55:44;;;;;;;4.32;2.60;;;20.70;99.90;;;;;;4157666;28;20124;-67
2023/08/04 09:57:45;;;;;;;4.85;2.60;;;20.80;99.90;;;;;;4152054;28;20053;-67
2023/08/04 09:59:47;;;;;;;6.10;2.90;;;20.80;99.90;;;;;;4154757;28;20116;-67
2023/08/04 10:01:48;;;;;;;5.75;2.80;;;20.80;99.90;;;;;;4151855;28;20065;-66
2023/08/04 10:03:53;;;;;;;3.33;2.20;;;20.90;99.90;;;;;;4152548;28;20083;-66
2023/08/04 10:05:57;;;;;;;3.20;2.05;;;20.90;99.90;;;;;;4150412;28;20142;-66
2023/08/04 10:07:58;;;;;;;6.22;3.47;;;20.90;99.90;;;;;;4147638;28;20041;-66
2023/08/04 10:10:00;;;;;;;5.82;3.55;;;20.90;99.90;;;;;;4148184;28;20124;-65
2023/08/04 10:12:02;;;;;;;5.78;2.90;;;20.80;99.90;;;;;;4146405;28;20091;-67
2023/08/04 10:14:04;;;;;;;7.18;3.38;;;20.90;99.90;;;;;;4146717;28;20102;-65
2023/08/04 10:16:08;;;;;;;6.30;3.20;;;20.90;99.90;;;;;;4146782;28;20037;-65
2023/08/04 10:18:09;;;;;;;6.45;3.45;;;20.80;99.90;;;;;;4146750;28;20037;-65
2023/08/04 10:20:10;;;;;;;4.00;2.60;;;20.90;99.90;;;;;;4148527;28;20541;-65
2023/08/04 10:22:12;;;;;;;3.85;2.58;;;20.80;99.90;;;;;;4146036;28;20052;-65
2023/08/04 10:24:13;;;;;;;3.75;2.53;;;20.80;99.90;;;;;;4154140;28;20449;-65
2023/08/04 10:26:14;;;;;;;3.50;2.17;;;20.80;99.90;;;;;;4144262;28;20052;-65
2023/08/04 10:28:17;;;;;;;6.75;3.15;;;20.80;99.90;;;;;;4152000;28;20033;-66
2023/08/04 10:30:18;;;;;;;3.63;2.60;;;20.80;99.90;;;;;;4150550;28;20037;-66
2023/08/04 10:32:19;;;;;;;6.20;2.90;;;20.90;99.90;;;;;;4162691;28;20036;-66